createdAt,value
2018-05-11T00:00:45.484Z,10.70
2018-05-11T00:03:12.992Z,10.80
2018-05-11T00:05:40.501Z,10.80
2018-05-11T00:08:08.005Z,10.80
2018-05-11T00:10:35.538Z,10.80
2018-05-11T00:13:03.022Z,10.80
2018-05-11T00:15:30.525Z,10.90
2018-05-11T00:17:58.050Z,10.90
2018-05-11T00:20:25.540Z,10.80
2018-05-11T00:22:53.880Z,10.80
2018-05-11T00:25:21.365Z,10.80
2018-05-11T00:27:49.640Z,10.70
2018-05-11T00:30:17.896Z,10.80
2018-05-11T00:32:45.466Z,10.80
2018-05-11T00:35:13.017Z,10.70
2018-05-11T00:37:40.511Z,10.70
2018-05-11T00:40:08.008Z,10.80
2018-05-11T00:42:35.596Z,10.80
2018-05-11T00:45:03.124Z,10.80
2018-05-11T00:47:30.783Z,10.70
2018-05-11T00:49:58.286Z,10.80
2018-05-11T00:52:26.555Z,10.90
2018-05-11T00:54:54.823Z,10.90
2018-05-11T00:57:23.125Z,10.70
2018-05-11T00:59:50.698Z,10.80
2018-05-11T01:02:24.060Z,10.70
2018-05-11T01:04:52.315Z,10.70
2018-05-11T01:07:19.840Z,10.70
2018-05-11T01:09:47.346Z,10.60
2018-05-11T01:12:14.832Z,10.60
2018-05-11T01:14:42.341Z,10.70
2018-05-11T01:17:09.878Z,10.70
2018-05-11T01:19:37.377Z,10.70
2018-05-11T01:22:04.890Z,10.60
2018-05-11T01:24:32.402Z,10.50
2018-05-11T01:27:00.655Z,10.60
2018-05-11T01:29:28.162Z,10.60
2018-05-11T01:31:55.694Z,10.50
2018-05-11T01:34:23.957Z,10.60
2018-05-11T01:36:51.461Z,10.60
2018-05-11T01:39:18.989Z,10.60
2018-05-11T01:41:47.251Z,10.60
2018-05-11T01:44:15.496Z,10.50
2018-05-11T01:46:43.010Z,10.50
2018-05-11T01:49:10.502Z,10.60
2018-05-11T01:51:38.050Z,10.60
2018-05-11T01:54:05.534Z,10.60
2018-05-11T01:56:33.021Z,10.60
2018-05-11T01:59:01.288Z,10.60
2018-05-11T02:01:28.782Z,10.60
2018-05-11T02:03:56.384Z,10.70
2018-05-11T02:06:23.917Z,10.60
2018-05-11T02:08:51.412Z,10.60
2018-05-11T02:11:18.922Z,10.50
2018-05-11T02:13:46.498Z,10.50
2018-05-11T02:16:13.998Z,10.50
2018-05-11T02:18:41.637Z,10.50
2018-05-11T02:21:09.081Z,10.50
2018-05-11T02:23:36.568Z,10.50
2018-05-11T02:26:04.062Z,10.40
2018-05-11T02:28:31.575Z,10.30
2018-05-11T02:30:59.073Z,10.20
2018-05-11T02:33:26.575Z,10.20
2018-05-11T02:35:54.074Z,10.20
2018-05-11T02:38:21.588Z,10.10
2018-05-11T02:40:49.078Z,10.00
2018-05-11T02:43:16.665Z,10.00
2018-05-11T02:45:44.166Z,10.00
2018-05-11T02:48:11.654Z,10.10
2018-05-11T02:50:39.969Z,9.90
2018-05-11T02:53:07.529Z,9.90
2018-05-11T02:55:35.042Z,9.80
2018-05-11T02:58:03.322Z,9.70
2018-05-11T03:00:31.619Z,9.70
2018-05-11T03:02:59.147Z,9.70
2018-05-11T03:05:26.655Z,9.70
2018-05-11T03:07:54.176Z,9.70
2018-05-11T03:10:22.537Z,9.60
2018-05-11T03:12:50.001Z,9.60
2018-05-11T03:15:18.259Z,9.40
2018-05-11T03:17:45.770Z,9.40
2018-05-11T03:20:13.266Z,9.40
2018-05-11T03:22:40.792Z,9.40
2018-05-11T03:25:08.281Z,9.50
2018-05-11T03:27:35.785Z,9.40
2018-05-11T03:30:03.278Z,9.40
2018-05-11T03:32:30.826Z,9.30
2018-05-11T03:34:58.383Z,9.20
2018-05-11T03:37:25.902Z,9.20
2018-05-11T03:39:54.153Z,9.10
2018-05-11T03:42:21.647Z,9.10
2018-05-11T03:44:49.139Z,9.20
2018-05-11T03:47:16.639Z,9.10
2018-05-11T03:49:44.136Z,9.20
2018-05-11T03:52:11.626Z,9.10
2018-05-11T03:54:39.131Z,9.10
2018-05-11T03:57:07.394Z,9.00
2018-05-11T03:59:35.647Z,9.00
2018-05-11T04:02:15.056Z,9.00
2018-05-11T04:04:54.404Z,9.00
2018-05-11T04:07:33.692Z,9.00
2018-05-11T04:10:01.196Z,8.90
2018-05-11T04:12:28.680Z,8.90
2018-05-11T04:14:56.213Z,8.80
2018-05-11T04:17:23.746Z,8.90
2018-05-11T04:19:51.225Z,8.90
2018-05-11T04:22:18.706Z,8.80
2018-05-11T04:24:46.173Z,8.70
2018-05-11T04:27:14.440Z,8.70
2018-05-11T04:29:41.928Z,8.70
2018-05-11T04:32:09.422Z,8.90
2018-05-11T04:34:36.903Z,8.90
2018-05-11T04:37:04.397Z,8.80
2018-05-11T04:39:31.889Z,8.80
2018-05-11T04:41:59.371Z,8.90
2018-05-11T04:44:26.858Z,9.00
2018-05-11T04:46:55.112Z,8.90
2018-05-11T04:49:23.382Z,8.90
2018-05-11T04:51:50.868Z,8.90
2018-05-11T04:54:19.158Z,9.10
2018-05-11T04:56:46.751Z,9.10
2018-05-11T04:59:14.240Z,9.10
2018-05-11T05:01:42.722Z,8.90
2018-05-11T05:04:10.972Z,8.90
2018-05-11T05:06:38.478Z,8.90
2018-05-11T05:09:05.959Z,8.90
2018-05-11T05:11:33.508Z,9.10
2018-05-11T05:14:00.980Z,9.20
2018-05-11T05:16:28.493Z,9.20
2018-05-11T05:18:56.741Z,9.40
2018-05-11T05:21:24.232Z,9.30
2018-05-11T05:23:52.499Z,9.40
2018-05-11T05:26:20.783Z,9.40
2018-05-11T05:28:49.062Z,9.50
2018-05-11T05:31:17.354Z,9.50
2018-05-11T05:33:44.851Z,9.50
2018-05-11T05:36:12.362Z,9.60
2018-05-11T05:38:39.863Z,9.60
2018-05-11T05:41:07.340Z,9.60
2018-05-11T05:43:35.618Z,9.80
2018-05-11T05:46:03.152Z,9.80
2018-05-11T05:48:30.643Z,9.90
2018-05-11T05:50:58.896Z,10.10
2018-05-11T05:53:26.418Z,10.10
2018-05-11T05:55:53.925Z,10.30
2018-05-11T05:58:21.416Z,10.50
2018-05-11T06:00:48.919Z,10.50
2018-05-11T06:03:16.402Z,10.60
2018-05-11T06:05:43.914Z,10.70
2018-05-11T06:08:11.460Z,10.80
2018-05-11T06:10:39.675Z,11.10
2018-05-11T06:13:07.212Z,11.00
2018-05-11T06:15:34.729Z,11.10
2018-05-11T06:20:41.949Z,11.40
2018-05-11T06:23:09.445Z,11.50
2018-05-11T06:25:36.922Z,11.50
2018-05-11T06:28:05.196Z,11.50
2018-05-11T06:30:32.684Z,11.50
2018-05-11T06:33:00.217Z,11.50
2018-05-11T06:35:27.769Z,11.50
2018-05-11T06:37:55.262Z,11.50
2018-05-11T06:40:22.788Z,11.50
2018-05-11T06:42:50.329Z,11.60
2018-05-11T06:45:17.834Z,11.60
2018-05-11T06:47:45.331Z,11.70
2018-05-11T06:50:12.851Z,11.80
2018-05-11T06:52:40.362Z,11.90
2018-05-11T06:55:07.862Z,12.10
2018-05-11T06:57:35.334Z,12.30
2018-05-11T07:00:02.916Z,12.50
2018-05-11T07:02:30.406Z,12.60
2018-05-11T07:04:57.906Z,12.70
2018-05-11T07:07:25.495Z,12.90
2018-05-11T07:09:52.940Z,13.00
2018-05-11T07:12:20.472Z,13.00
2018-05-11T07:14:48.046Z,13.10
2018-05-11T07:19:49.506Z,13.30
2018-05-11T07:22:17.010Z,13.40
2018-05-11T07:24:44.501Z,13.40
2018-05-11T07:27:12.023Z,13.40
2018-05-11T07:29:39.588Z,13.50
2018-05-11T07:32:07.076Z,13.70
2018-05-11T07:34:34.604Z,13.80
2018-05-11T07:37:02.178Z,13.80
2018-05-11T07:39:30.440Z,14.10
2018-05-11T07:41:57.954Z,14.10
2018-05-11T07:44:25.450Z,14.10
2018-05-11T07:46:52.986Z,14.10
2018-05-11T07:49:20.497Z,14.10
2018-05-11T07:51:48.016Z,14.20
2018-05-11T07:54:15.523Z,14.20
2018-05-11T07:56:43.036Z,14.20
2018-05-11T07:59:10.536Z,14.30
2018-05-11T08:01:38.040Z,14.40
2018-05-11T08:04:05.668Z,14.50
2018-05-11T08:06:33.970Z,14.50
2018-05-11T08:09:01.536Z,14.50
2018-05-11T08:11:29.093Z,14.50
2018-05-11T08:13:56.645Z,14.60
2018-05-11T08:16:24.913Z,14.80
2018-05-11T08:18:52.403Z,14.70
2018-05-11T08:21:19.982Z,14.70
2018-05-11T08:23:48.277Z,14.90
2018-05-11T08:26:15.754Z,14.80
2018-05-11T08:28:43.251Z,15.00
2018-05-11T08:31:10.768Z,14.90
2018-05-11T08:33:38.259Z,15.10
2018-05-11T08:36:05.780Z,15.30
2018-05-11T08:38:33.354Z,15.50
2018-05-11T08:41:00.863Z,15.60
2018-05-11T08:43:29.131Z,15.70
2018-05-11T08:45:56.654Z,15.60
2018-05-11T08:48:24.154Z,15.60
2018-05-11T08:50:52.434Z,15.80
2018-05-11T08:53:20.709Z,15.90
2018-05-11T08:55:49.007Z,15.80
2018-05-11T08:58:16.480Z,15.70
2018-05-11T09:00:44.019Z,15.80
2018-05-11T09:03:11.658Z,15.70
2018-05-11T09:05:39.947Z,15.80
2018-05-11T09:08:07.452Z,15.80
2018-05-11T09:10:34.951Z,15.90
2018-05-11T09:13:03.323Z,16.00
2018-05-11T09:15:31.590Z,16.10
2018-05-11T09:18:00.035Z,16.20
2018-05-11T09:20:27.551Z,16.20
2018-05-11T09:22:55.056Z,16.20
2018-05-11T09:25:22.575Z,16.20
2018-05-11T09:27:50.066Z,16.30
2018-05-11T09:30:17.602Z,16.20
2018-05-11T09:32:45.175Z,16.20
2018-05-11T09:35:12.669Z,16.30
2018-05-11T09:37:40.274Z,16.40
2018-05-11T09:40:07.775Z,16.40
2018-05-11T09:42:35.268Z,16.70
2018-05-11T09:45:02.802Z,16.90
2018-05-11T09:47:30.327Z,17.20
2018-05-11T09:49:57.921Z,17.40
2018-05-11T09:52:25.470Z,17.50
2018-05-11T09:54:52.970Z,17.60
2018-05-11T09:57:20.471Z,17.70
2018-05-11T09:59:47.960Z,17.70
2018-05-11T10:02:16.209Z,17.90
2018-05-11T10:04:43.740Z,17.90
2018-05-11T10:07:11.245Z,18.00
2018-05-11T10:09:39.527Z,18.20
2018-05-11T10:12:07.788Z,18.20
2018-05-11T10:14:35.275Z,18.20
2018-05-11T10:17:02.823Z,18.30
2018-05-11T10:19:31.078Z,18.60
2018-05-11T10:21:58.621Z,18.60
2018-05-11T10:24:26.110Z,18.70
2018-05-11T10:26:53.633Z,18.80
2018-05-11T10:29:21.130Z,18.70
2018-05-11T10:31:49.380Z,18.80
2018-05-11T10:34:16.914Z,18.80
2018-05-11T10:36:44.402Z,18.70
2018-05-11T10:39:12.700Z,18.90
2018-05-11T10:41:43.856Z,18.90
2018-05-11T10:44:11.428Z,19.00
2018-05-11T10:46:38.976Z,19.30
2018-05-11T10:49:06.705Z,19.50
2018-05-11T10:51:35.026Z,19.10
2018-05-11T10:54:02.548Z,19.10
2018-05-11T10:56:30.834Z,18.80
2018-05-11T10:58:59.210Z,18.90
2018-05-11T11:01:27.471Z,19.20
2018-05-11T11:03:55.758Z,19.30
2018-05-11T11:06:24.004Z,19.30
2018-05-11T11:08:51.493Z,19.20
2018-05-11T11:11:19.760Z,19.40
2018-05-11T11:13:48.027Z,19.70
2018-05-11T11:16:16.327Z,19.90
2018-05-11T11:18:43.837Z,19.90
2018-05-11T11:21:11.339Z,20.30
2018-05-11T11:23:38.855Z,20.40
2018-05-11T11:26:06.493Z,20.70
2018-05-11T11:28:33.916Z,20.90
2018-05-11T11:31:01.405Z,21.00
2018-05-11T11:33:28.901Z,21.00
2018-05-11T11:35:56.386Z,21.00
2018-05-11T11:38:23.908Z,20.80
2018-05-11T11:40:51.386Z,20.80
2018-05-11T11:43:19.675Z,21.00
2018-05-11T11:45:47.178Z,21.00
2018-05-11T11:48:14.686Z,20.90
2018-05-11T11:50:42.948Z,20.40
2018-05-11T11:53:11.200Z,20.50
2018-05-11T11:55:38.745Z,20.40
2018-05-11T11:58:06.237Z,20.60
2018-05-11T12:00:34.538Z,20.90
2018-05-11T12:03:02.018Z,20.90
2018-05-11T12:05:29.519Z,21.00
2018-05-11T12:07:57.005Z,21.10
2018-05-11T12:10:24.526Z,21.30
2018-05-11T12:12:52.029Z,21.30
2018-05-11T12:15:19.528Z,21.20
2018-05-11T12:17:47.100Z,21.30
2018-05-11T12:20:14.603Z,21.40
2018-05-11T12:22:42.164Z,21.30
2018-05-11T12:25:09.578Z,21.20
2018-05-11T12:27:37.067Z,21.20
2018-05-11T12:30:04.560Z,21.40
2018-05-11T12:32:32.087Z,21.40
2018-05-11T12:34:59.586Z,21.40
2018-05-11T12:37:27.094Z,21.30
2018-05-11T12:39:54.606Z,21.30
2018-05-11T12:42:22.100Z,21.40
2018-05-11T12:44:50.356Z,21.30
2018-05-11T12:47:18.657Z,21.40
2018-05-11T12:49:46.913Z,21.30
2018-05-11T12:52:14.397Z,21.30
2018-05-11T12:54:41.894Z,21.30
2018-05-11T12:57:09.429Z,21.30
2018-05-11T12:59:36.923Z,21.20
2018-05-11T13:02:04.407Z,21.30
2018-05-11T13:04:32.688Z,21.50
2018-05-11T13:07:00.995Z,21.60
2018-05-11T13:09:28.488Z,21.60
2018-05-11T13:11:56.026Z,21.70
2018-05-11T13:14:23.532Z,21.70
2018-05-11T13:16:51.801Z,21.80
2018-05-11T13:19:20.083Z,21.80
2018-05-11T13:21:48.401Z,21.90
2018-05-11T13:24:15.900Z,21.90
2018-05-11T13:26:43.403Z,22.00
2018-05-11T13:29:10.910Z,22.00
2018-05-11T13:31:38.416Z,22.00
2018-05-11T13:34:05.921Z,22.10
2018-05-11T13:36:33.401Z,22.30
2018-05-11T13:39:01.664Z,22.20
2018-05-11T13:41:29.158Z,22.10
2018-05-11T13:43:56.657Z,22.10
2018-05-11T13:46:24.219Z,21.80
2018-05-11T13:48:51.729Z,21.90
2018-05-11T13:51:19.313Z,21.80
2018-05-11T13:53:46.796Z,21.60
2018-05-11T13:56:14.417Z,21.60
2018-05-11T13:58:42.043Z,21.80
2018-05-11T14:01:10.355Z,22.00
2018-05-11T14:03:37.906Z,22.00
2018-05-11T14:06:05.356Z,22.10
2018-05-11T14:08:32.862Z,22.20
2018-05-11T14:11:00.361Z,22.40
2018-05-11T14:13:28.624Z,22.60
2018-05-11T14:15:56.891Z,22.50
2018-05-11T14:18:24.412Z,22.50
2018-05-11T14:20:51.914Z,22.50
2018-05-11T14:23:20.165Z,22.80
2018-05-11T14:25:47.705Z,22.80
2018-05-11T14:28:15.391Z,22.90
2018-05-11T14:30:42.927Z,22.90
2018-05-11T14:33:10.415Z,23.00
2018-05-11T14:35:37.905Z,23.30
2018-05-11T14:38:05.406Z,23.20
2018-05-11T14:40:32.911Z,23.40
2018-05-11T14:43:01.198Z,23.40
2018-05-11T14:45:28.696Z,23.40
2018-05-11T14:47:56.774Z,23.70
2018-05-11T14:50:25.089Z,23.70
2018-05-11T14:52:52.653Z,23.70
2018-05-11T14:55:20.901Z,24.00
2018-05-11T14:57:48.410Z,24.00
2018-05-11T15:00:15.969Z,24.40
2018-05-11T15:02:43.466Z,25.00
2018-05-11T15:05:10.975Z,25.60
2018-05-11T15:07:38.483Z,26.40
2018-05-11T15:10:06.014Z,27.10
2018-05-11T15:12:33.505Z,27.80
2018-05-11T15:15:01.004Z,28.30
2018-05-11T15:17:28.476Z,28.50
2018-05-11T15:19:55.981Z,28.40
2018-05-11T15:22:23.464Z,28.80
2018-05-11T15:24:50.944Z,29.20
2018-05-11T15:27:18.469Z,28.90
2018-05-11T15:29:45.966Z,28.90
2018-05-11T15:32:13.518Z,28.40
2018-05-11T15:34:41.034Z,28.00
2018-05-11T15:37:09.311Z,26.90
2018-05-11T15:39:36.820Z,26.90
2018-05-11T15:42:04.358Z,26.60
2018-05-11T15:44:31.854Z,26.30
2018-05-11T15:47:00.853Z,25.50
2018-05-11T15:49:28.356Z,25.40
2018-05-11T15:51:55.882Z,24.90
2018-05-11T15:54:23.538Z,24.60
2018-05-11T15:56:51.053Z,24.10
2018-05-11T15:59:18.574Z,23.90
2018-05-11T16:01:46.827Z,23.30
2018-05-11T16:04:14.341Z,23.30
2018-05-11T16:06:41.830Z,23.10
2018-05-11T16:09:09.325Z,22.90
2018-05-11T16:11:37.850Z,22.30
2018-05-11T16:14:06.122Z,22.20
2018-05-11T16:16:33.609Z,22.20
2018-05-11T16:19:01.873Z,21.80
2018-05-11T16:21:29.407Z,21.70
2018-05-11T16:23:56.911Z,21.60
2018-05-11T16:26:24.429Z,21.50
2018-05-11T16:28:52.691Z,21.20
2018-05-11T16:31:20.211Z,21.10
2018-05-11T16:33:47.725Z,21.10
2018-05-11T16:36:15.236Z,21.00
2018-05-11T16:38:43.535Z,20.80
2018-05-11T16:41:11.030Z,20.70
2018-05-11T16:43:38.541Z,20.50
2018-05-11T16:46:06.029Z,20.40
2018-05-11T16:48:33.559Z,20.30
2018-05-11T16:51:01.072Z,20.20
2018-05-11T16:53:28.591Z,20.10
2018-05-11T16:55:56.087Z,20.00
2018-05-11T16:58:23.565Z,19.80
2018-05-11T17:00:51.838Z,19.70
2018-05-11T17:03:20.096Z,19.50
2018-05-11T17:05:47.595Z,19.50
2018-05-11T17:08:15.098Z,19.50
2018-05-11T17:10:42.605Z,19.40
2018-05-11T17:13:10.143Z,19.40
2018-05-11T17:15:38.392Z,19.20
2018-05-11T17:18:05.903Z,19.10
2018-05-11T17:20:33.413Z,18.90
2018-05-11T17:23:00.913Z,18.80
2018-05-11T17:25:28.420Z,18.70
2018-05-11T17:27:55.917Z,18.60
2018-05-11T17:30:23.577Z,18.50
2018-05-11T17:32:51.860Z,18.50
2018-05-11T17:35:19.423Z,18.50
2018-05-11T17:37:47.116Z,18.60
2018-05-11T17:40:14.622Z,18.60
2018-05-11T17:42:42.939Z,18.20
2018-05-11T17:45:10.445Z,18.20
2018-05-11T17:47:37.965Z,18.30
2018-05-11T17:50:05.526Z,18.20
2018-05-11T17:52:33.025Z,18.10
2018-05-11T17:55:01.315Z,17.90
2018-05-11T17:57:29.563Z,17.90
2018-05-11T17:59:57.068Z,17.90
2018-05-11T18:02:24.571Z,17.80
2018-05-11T18:04:52.112Z,17.70
2018-05-11T18:07:20.376Z,17.60
2018-05-11T18:09:47.860Z,17.60
2018-05-11T18:12:15.465Z,17.50
2018-05-11T18:14:42.942Z,17.40
2018-05-11T18:17:10.457Z,17.40
2018-05-11T18:19:37.956Z,17.30
2018-05-11T18:22:05.594Z,17.10
2018-05-11T18:24:33.096Z,17.10
2018-05-11T18:27:01.392Z,17.00
2018-05-11T18:29:28.909Z,17.00
2018-05-11T18:31:56.437Z,17.10
2018-05-11T18:34:24.713Z,17.00
2018-05-11T18:36:52.985Z,16.90
2018-05-11T18:39:21.266Z,16.80
2018-05-11T18:41:49.516Z,16.60
2018-05-11T18:44:17.024Z,16.60
2018-05-11T18:46:44.522Z,16.50
2018-05-11T18:49:12.012Z,16.40
2018-05-11T18:51:39.554Z,16.40
2018-05-11T18:54:07.226Z,16.30
2018-05-11T18:56:34.544Z,16.40
2018-05-11T18:59:02.049Z,16.20
2018-05-11T19:01:29.612Z,16.20
2018-05-11T19:03:57.246Z,16.00
2018-05-11T19:06:25.518Z,15.90
2018-05-11T19:08:53.047Z,15.90
2018-05-11T19:11:20.657Z,15.90
2018-05-11T19:13:48.935Z,15.80
2018-05-11T19:16:17.230Z,15.70
2018-05-11T19:18:44.731Z,15.70
2018-05-11T19:21:12.230Z,15.70
2018-05-11T19:23:39.722Z,15.70
2018-05-11T19:26:07.274Z,15.70
2018-05-11T19:28:34.749Z,15.70
2018-05-11T19:31:02.246Z,15.50
2018-05-11T19:33:30.553Z,15.40
2018-05-11T19:35:58.044Z,15.40
2018-05-11T19:38:25.568Z,15.40
2018-05-11T19:40:53.083Z,15.40
2018-05-11T19:43:21.355Z,15.20
2018-05-11T19:45:49.627Z,15.10
2018-05-11T19:48:17.135Z,15.10
2018-05-11T19:50:44.669Z,15.10
2018-05-11T19:53:12.178Z,15.00
2018-05-11T19:55:39.757Z,15.00
2018-05-11T19:58:07.412Z,15.00
2018-05-11T20:00:34.956Z,14.90
2018-05-11T20:03:02.446Z,14.80
2018-05-11T20:05:29.977Z,14.80
2018-05-11T20:07:57.477Z,14.70
2018-05-11T20:10:25.738Z,14.60
2018-05-11T20:12:54.017Z,14.70
2018-05-11T20:15:22.274Z,14.60
2018-05-11T20:17:49.773Z,14.60
2018-05-11T20:20:17.320Z,14.60
2018-05-11T20:22:45.582Z,14.50
2018-05-11T20:25:13.853Z,14.50
2018-05-11T20:27:42.128Z,14.50
2018-05-11T20:30:10.399Z,14.30
2018-05-11T20:32:37.965Z,14.30
2018-05-11T20:35:05.410Z,14.30
2018-05-11T20:37:32.908Z,14.30
2018-05-11T20:40:00.404Z,14.30
2018-05-11T20:42:27.909Z,14.20
2018-05-11T20:44:55.446Z,14.10
2018-05-11T20:47:22.944Z,14.10
2018-05-11T20:49:50.490Z,14.00
2018-05-11T20:52:17.988Z,14.10
2018-05-11T20:54:45.491Z,14.10
2018-05-11T20:57:13.913Z,14.00
2018-05-11T20:59:41.410Z,14.00
2018-05-11T21:02:08.913Z,14.10
2018-05-11T21:04:36.430Z,14.00
2018-05-11T21:07:03.998Z,14.00
2018-05-11T21:09:32.289Z,14.00
2018-05-11T21:11:59.853Z,14.00
2018-05-11T21:14:27.371Z,14.00
2018-05-11T21:16:54.879Z,13.90
2018-05-11T21:19:22.394Z,13.90
2018-05-11T21:21:49.899Z,13.90
2018-05-11T21:24:18.127Z,13.90
2018-05-11T21:26:45.630Z,13.90
2018-05-11T21:29:13.130Z,13.90
2018-05-11T21:31:40.688Z,14.00
2018-05-11T21:34:08.184Z,14.00
2018-05-11T21:36:35.760Z,14.00
2018-05-11T21:39:03.296Z,14.00
2018-05-11T21:41:30.826Z,14.10
2018-05-11T21:43:58.431Z,14.10
2018-05-11T21:46:25.984Z,14.00
2018-05-11T21:48:53.494Z,14.00
2018-05-11T21:51:21.066Z,14.10
2018-05-11T21:53:48.562Z,14.10
2018-05-11T21:56:16.076Z,14.10
2018-05-11T21:58:43.602Z,14.00
2018-05-11T22:01:11.094Z,14.00
2018-05-11T22:03:38.592Z,14.00
2018-05-11T22:06:06.093Z,14.00
2018-05-11T22:08:33.599Z,14.00
2018-05-11T22:11:01.108Z,14.20
2018-05-11T22:13:28.705Z,14.10
2018-05-11T22:15:56.155Z,14.00
2018-05-11T22:18:24.448Z,13.90
2018-05-11T22:20:52.027Z,13.90
2018-05-11T22:23:19.522Z,13.90
2018-05-11T22:25:47.023Z,14.00
2018-05-11T22:28:14.525Z,14.10
2018-05-11T22:30:42.074Z,14.20
2018-05-11T22:33:09.570Z,14.10
2018-05-11T22:35:37.057Z,14.10
2018-05-11T22:38:04.560Z,14.30
2018-05-11T22:40:32.068Z,14.40
2018-05-11T22:42:59.582Z,14.30
2018-05-11T22:45:27.101Z,14.30
2018-05-11T22:47:54.670Z,14.30
2018-05-11T22:50:22.237Z,14.30
2018-05-11T22:52:49.724Z,14.30
2018-05-11T22:55:17.240Z,14.20
2018-05-11T22:57:44.741Z,14.30
2018-05-11T23:00:13.703Z,14.40
2018-05-11T23:02:41.458Z,14.40
2018-05-11T23:05:08.959Z,14.40
2018-05-11T23:07:37.213Z,14.40
2018-05-11T23:10:04.827Z,14.40
2018-05-11T23:12:32.338Z,14.20
2018-05-11T23:14:59.829Z,14.20
2018-05-11T23:17:28.095Z,14.00
2018-05-11T23:19:56.382Z,14.00
2018-05-11T23:22:23.886Z,14.00
2018-05-11T23:24:51.401Z,13.90
2018-05-11T23:27:18.893Z,13.90
2018-05-11T23:29:46.393Z,13.90
2018-05-11T23:32:14.673Z,13.80
2018-05-11T23:34:43.029Z,13.80
2018-05-11T23:37:10.530Z,13.80
2018-05-11T23:39:38.022Z,13.80
2018-05-11T23:42:05.524Z,13.80
2018-05-11T23:44:33.773Z,13.60
2018-05-11T23:47:01.281Z,13.60
2018-05-11T23:49:28.813Z,13.50
2018-05-11T23:51:57.103Z,13.60
2018-05-11T23:54:24.623Z,13.60
2018-05-11T23:56:52.105Z,13.50
2018-05-11T23:59:20.396Z,13.50
